Terminal Aerodrome Forecast
Issued by NWS

Home | Current Version | Previous Version | Text Only | Print | Product List | Glossary On
Versions: 1 2 3 4 5 6 7 8 9 10 11 12 13 14 15 16 17 18 19 20 21 22 23 24 25
797
FTUS41 KPBZ 302336
TAFZZV
TAF
KZZV 302336Z 3100/3124 VRB03KT P6SM BKN040
      TEMPO 3100/3101 5SM -TSRA BKN040CB
     FM310400 00000KT 5SM BR SCT200
     FM310600 00000KT 2SM BR SCT200
     FM310800 00000KT 1SM BR SCT005
     FM311300 24005KT 5SM BR BKN010
     FM311500 25005KT P6SM BKN020
     FM311700 25006KT P6SM VCSH BKN040=

USA.gov is the U.S. government's official web portal to all federal, state and local government web resources and services.